Terminal Aerodrome Forecast
Issued by NWS Wilmington, OH

Current Version | Previous Version | Text Only | Print | Product List | Glossary Off
Versions: 1 2 3 4 5 6 7 8 9 10 11 12 13 14 15 16 17 18 19 20 21 22 23 24

000
FTUS41 KILN 250804 AAA
TAFILN
TAF AMD
KILN 250804Z 2508/2606 26005KT P6SM BKN035 OVC250
      TEMPO 2509/2512 4SM BR
     FM251200 26005KT P6SM FEW035 SCT100 BKN250
     FM251700 26010KT P6SM VCTS SCT040CB
     FM252100 29007KT P6SM VCTS SCT040CB
     FM260100 VRB03KT P6SM SCT250=

USA.gov is the U.S. government's official web portal to all federal, state and local government web resources and services.